Time;durP1;ratioP1;P1;durP2;ratioP2;P2;SDS_P1;SDS_P2;PMS_P1;PMS_P2;Temp;Humidity;BMP_temperature;BMP_pressure;BME280_temperature;BME280_humidity;BME280_pressure;Samples;Min_cycle;Max_cycle;Signal;HPM_P1;HPM_P2
2021/01/17 00:00:16;;;;;;;29.40;6.72;;;;;;;;;;5043758;28;20017;-71
2021/01/17 00:02:43;;;;;;;20.40;4.85;;;;;;;;;;5037822;28;20029;-71
2021/01/17 00:05:11;;;;;;;24.13;5.63;;;;;;;;;;5045912;28;20094;-71
2021/01/17 00:07:37;;;;;;;33.20;5.18;;;;;;;;;;5032700;28;20017;-71
2021/01/17 00:10:04;;;;;;;24.15;4.80;;;;;;;;;;5033244;28;20099;-71
2021/01/17 00:12:29;;;;;;;33.22;5.60;;;;;;;;;;5033237;28;20037;-71
2021/01/17 00:14:55;;;;;;;20.10;5.13;;;;;;;;;;5037658;28;20047;-71
2021/01/17 00:17:20;;;;;;;19.27;4.18;;;;;;;;;;5035654;28;20129;-71
2021/01/17 00:19:45;;;;;;;26.75;4.55;;;;;;;;;;5035588;28;20033;-71
2021/01/17 00:22:10;;;;;;;21.73;3.65;;;;;;;;;;5034041;28;20059;-68
2021/01/17 00:24:36;;;;;;;28.50;3.78;;;;;;;;;;5033424;28;20056;-69
2021/01/17 00:27:01;;;;;;;22.10;4.10;;;;;;;;;;5038006;28;20087;-69
2021/01/17 00:29:26;;;;;;;22.63;4.03;;;;;;;;;;5035068;28;20075;-68
2021/01/17 00:31:52;;;;;;;17.55;3.67;;;;;;;;;;5035552;28;20112;-69
2021/01/17 00:34:18;;;;;;;18.88;5.13;;;;;;;;;;5035340;28;20120;-69
2021/01/17 00:36:43;;;;;;;24.65;4.07;;;;;;;;;;5033360;28;20017;-69
2021/01/17 00:39:08;;;;;;;24.65;4.43;;;;;;;;;;5037987;28;20055;-69
2021/01/17 00:41:34;;;;;;;14.38;2.75;;;;;;;;;;5047985;28;20029;-69
2021/01/17 00:44:00;;;;;;;20.38;3.13;;;;;;;;;;5048999;28;20017;-69
2021/01/17 00:46:26;;;;;;;21.65;3.30;;;;;;;;;;5037890;28;20394;-69
2021/01/17 00:48:51;;;;;;;34.88;4.80;;;;;;;;;;5034118;28;20021;-69
2021/01/17 00:51:16;;;;;;;15.65;3.92;;;;;;;;;;5034478;28;20067;-69
2021/01/17 00:53:42;;;;;;;21.92;4.13;;;;;;;;;;5036614;28;20033;-69
2021/01/17 00:56:07;;;;;;;20.58;4.03;;;;;;;;;;5053447;28;20158;-69
2021/01/17 00:58:32;;;;;;;24.45;4.25;;;;;;;;;;5053551;28;20108;-69
2021/01/17 01:00:58;;;;;;;29.08;4.63;;;;;;;;;;5053230;28;20029;-69
2021/01/17 01:03:23;;;;;;;24.42;3.88;;;;;;;;;;5053528;28;20021;-69
2021/01/17 01:05:48;;;;;;;27.88;4.13;;;;;;;;;;5053292;28;20060;-69
2021/01/17 01:08:14;;;;;;;21.65;3.15;;;;;;;;;;5053081;28;20040;-68
2021/01/17 01:10:39;;;;;;;17.88;3.83;;;;;;;;;;5044570;28;20050;-69
2021/01/17 01:13:04;;;;;;;21.15;3.50;;;;;;;;;;5033429;28;20021;-69
2021/01/17 01:15:29;;;;;;;27.75;4.70;;;;;;;;;;5033193;28;20474;-69
2021/01/17 01:17:55;;;;;;;33.33;4.60;;;;;;;;;;5033349;28;20057;-69
2021/01/17 01:20:20;;;;;;;21.02;3.05;;;;;;;;;;5033191;28;20026;-69
2021/01/17 01:22:45;;;;;;;20.45;3.63;;;;;;;;;;5033258;28;20041;-69
2021/01/17 01:25:11;;;;;;;33.22;4.65;;;;;;;;;;5033207;28;20127;-69
2021/01/17 01:27:36;;;;;;;20.75;3.28;;;;;;;;;;5032870;28;20488;-69
2021/01/17 01:30:02;;;;;;;19.05;4.43;;;;;;;;;;5032900;28;20036;-69
2021/01/17 01:32:27;;;;;;;20.75;4.03;;;;;;;;;;5032805;28;20393;-69
2021/01/17 01:34:53;;;;;;;21.02;4.13;;;;;;;;;;5033040;28;20021;-69
2021/01/17 01:37:18;;;;;;;30.48;5.10;;;;;;;;;;5032372;28;20037;-69
2021/01/17 01:39:43;;;;;;;29.25;3.83;;;;;;;;;;5033339;28;20045;-69
2021/01/17 01:42:09;;;;;;;23.77;3.20;;;;;;;;;;5032683;28;20036;-69
2021/01/17 01:44:34;;;;;;;36.90;4.72;;;;;;;;;;5032855;28;20470;-69
2021/01/17 01:47:00;;;;;;;31.33;4.88;;;;;;;;;;5032702;28;20033;-68
2021/01/17 01:49:26;;;;;;;27.45;3.60;;;;;;;;;;5032849;28;20026;-69
2021/01/17 01:51:52;;;;;;;19.30;3.92;;;;;;;;;;5032679;28;20091;-69
2021/01/17 01:54:17;;;;;;;26.92;3.17;;;;;;;;;;5032659;28;20115;-68
2021/01/17 01:56:43;;;;;;;29.35;3.65;;;;;;;;;;5032755;28;20021;-69
2021/01/17 01:59:08;;;;;;;21.25;3.25;;;;;;;;;;5032695;28;20044;-69
2021/01/17 02:01:33;;;;;;;26.50;3.17;;;;;;;;;;5032835;28;20421;-69
2021/01/17 02:03:59;;;;;;;22.45;3.55;;;;;;;;;;5032625;28;20104;-68
2021/01/17 02:06:25;;;;;;;17.63;3.42;;;;;;;;;;5032493;28;20386;-69
2021/01/17 02:09:09;;;;;;;36.20;5.68;;;;;;;;;;5032656;28;20404;-69
2021/01/17 02:11:40;;;;;;;23.20;3.20;;;;;;;;;;5031859;28;20049;-69
2021/01/17 02:14:25;;;;;;;35.00;5.13;;;;;;;;;;5032515;28;20034;-68
2021/01/17 02:16:52;;;;;;;23.20;3.42;;;;;;;;;;5031962;28;20013;-69
2021/01/17 02:19:18;;;;;;;40.10;3.70;;;;;;;;;;5031301;28;20116;-69
2021/01/17 02:21:50;;;;;;;33.08;3.45;;;;;;;;;;5032443;28;20097;-69
2021/01/17 02:24:18;;;;;;;22.75;3.22;;;;;;;;;;5036715;28;20029;-69
2021/01/17 02:26:43;;;;;;;21.80;4.05;;;;;;;;;;5036357;28;20052;-69
2021/01/17 02:29:08;;;;;;;26.38;3.47;;;;;;;;;;5036451;28;20017;-69
2021/01/17 02:31:35;;;;;;;30.23;3.80;;;;;;;;;;5036402;28;20447;-68
2021/01/17 02:34:01;;;;;;;28.38;3.35;;;;;;;;;;5036361;28;20037;-68
2021/01/17 02:36:45;;;;;;;31.63;3.58;;;;;;;;;;5036202;28;20033;-69
2021/01/17 02:39:17;;;;;;;24.75;2.88;;;;;;;;;;5036193;28;20037;-69
2021/01/17 02:41:55;;;;;;;32.05;3.67;;;;;;;;;;5035962;28;20045;-69
2021/01/17 02:44:21;;;;;;;37.08;4.25;;;;;;;;;;5036189;28;20148;-68
2021/01/17 02:46:46;;;;;;;22.95;3.28;;;;;;;;;;5034831;28;20472;-69
2021/01/17 02:49:12;;;;;;;28.65;4.20;;;;;;;;;;5036123;28;20478;-69
2021/01/17 02:51:37;;;;;;;33.53;3.45;;;;;;;;;;5035985;28;20030;-69
2021/01/17 02:54:08;;;;;;;28.45;3.83;;;;;;;;;;5035955;28;20040;-68
2021/01/17 02:56:34;;;;;;;33.92;3.30;;;;;;;;;;5035863;28;20060;-69
2021/01/17 02:59:00;;;;;;;24.45;4.05;;;;;;;;;;5035703;28;20136;-68
2021/01/17 03:01:26;;;;;;;35.38;4.22;;;;;;;;;;5035686;28;20068;-69
2021/01/17 03:03:53;;;;;;;24.75;3.67;;;;;;;;;;5035912;28;20053;-69
2021/01/17 03:06:20;;;;;;;25.45;3.75;;;;;;;;;;5035540;28;20144;-69
2021/01/17 03:08:45;;;;;;;27.05;4.55;;;;;;;;;;5035822;28;20025;-69
2021/01/17 03:11:10;;;;;;;43.83;4.15;;;;;;;;;;5035595;28;20045;-69
2021/01/17 03:13:36;;;;;;;23.75;3.10;;;;;;;;;;5035633;28;20111;-69
2021/01/17 03:16:02;;;;;;;24.63;3.28;;;;;;;;;;5035227;28;20582;-69
2021/01/17 03:18:28;;;;;;;27.90;4.10;;;;;;;;;;5035585;28;20371;-69
2021/01/17 03:20:53;;;;;;;34.85;3.67;;;;;;;;;;5035044;28;20030;-68
2021/01/17 03:23:18;;;;;;;30.15;3.83;;;;;;;;;;5035507;28;20068;-69
2021/01/17 03:25:44;;;;;;;34.15;3.97;;;;;;;;;;5035218;28;20025;-69
2021/01/17 03:28:09;;;;;;;25.60;3.67;;;;;;;;;;5035370;28;20035;-69
2021/01/17 03:30:34;;;;;;;24.08;3.20;;;;;;;;;;5034982;28;20037;-69
2021/01/17 03:32:59;;;;;;;37.85;4.32;;;;;;;;;;5034817;28;20520;-69
2021/01/17 03:35:25;;;;;;;33.00;3.70;;;;;;;;;;5035016;28;20029;-69
2021/01/17 03:37:50;;;;;;;39.70;3.67;;;;;;;;;;5035169;28;20107;-69
2021/01/17 03:40:15;;;;;;;37.28;3.22;;;;;;;;;;5035109;28;20045;-69
2021/01/17 03:42:40;;;;;;;36.80;4.28;;;;;;;;;;5034697;28;20041;-69
2021/01/17 03:45:06;;;;;;;32.03;3.28;;;;;;;;;;5035016;28;20099;-69
2021/01/17 03:47:31;;;;;;;31.15;3.35;;;;;;;;;;5034866;28;20049;-69
2021/01/17 03:49:57;;;;;;;35.83;3.88;;;;;;;;;;5034968;28;20051;-68
2021/01/17 03:52:22;;;;;;;34.38;3.60;;;;;;;;;;5034864;28;20543;-69
2021/01/17 03:54:47;;;;;;;38.20;3.70;;;;;;;;;;5034869;28;20018;-69
2021/01/17 03:57:13;;;;;;;34.33;3.25;;;;;;;;;;5034708;28;20096;-68
2021/01/17 03:59:38;;;;;;;29.77;3.63;;;;;;;;;;5034817;28;20033;-69
2021/01/17 04:02:03;;;;;;;25.45;3.25;;;;;;;;;;5034647;28;20009;-69
2021/01/17 04:04:28;;;;;;;27.80;2.80;;;;;;;;;;5034667;28;20034;-69
2021/01/17 04:06:54;;;;;;;19.58;2.97;;;;;;;;;;5034553;28;20029;-69
2021/01/17 04:09:19;;;;;;;29.75;4.43;;;;;;;;;;5034512;28;20376;-69
2021/01/17 04:11:47;;;;;;;17.17;2.60;;;;;;;;;;5034142;28;20037;-69
2021/01/17 04:14:12;;;;;;;18.63;3.65;;;;;;;;;;5033263;28;20037;-68
2021/01/17 04:16:37;;;;;;;17.25;2.45;;;;;;;;;;5034388;28;20021;-68
2021/01/17 04:19:02;;;;;;;12.00;2.40;;;;;;;;;;5034232;28;20043;-69
2021/01/17 04:21:28;;;;;;;13.38;2.05;;;;;;;;;;5034215;28;20037;-69
2021/01/17 04:23:53;;;;;;;15.27;2.60;;;;;;;;;;5034342;28;20056;-69
2021/01/17 04:26:19;;;;;;;15.15;1.88;;;;;;;;;;5034114;28;20048;-68
2021/01/17 04:28:44;;;;;;;12.75;1.90;;;;;;;;;;5034267;28;20033;-68
2021/01/17 04:31:09;;;;;;;17.73;2.33;;;;;;;;;;5034121;28;20369;-69
2021/01/17 04:33:35;;;;;;;19.13;3.95;;;;;;;;;;5034246;28;20140;-69
2021/01/17 04:36:00;;;;;;;11.68;1.58;;;;;;;;;;5033949;28;20042;-68
2021/01/17 04:38:25;;;;;;;20.52;1.73;;;;;;;;;;5034062;28;20104;-69
2021/01/17 04:40:50;;;;;;;7.07;1.33;;;;;;;;;;5033790;28;20410;-69
2021/01/17 04:43:29;;;;;;;11.77;2.55;;;;;;;;;;5034027;28;20037;-69
2021/01/17 04:45:57;;;;;;;5.53;1.08;;;;;;;;;;5031569;28;20107;-69
2021/01/17 04:48:24;;;;;;;5.63;1.58;;;;;;;;;;5033898;28;20034;-69
2021/01/17 04:50:50;;;;;;;7.80;1.10;;;;;;;;;;5033479;28;20022;-69
2021/01/17 04:53:16;;;;;;;4.90;1.13;;;;;;;;;;5033787;28;20405;-69
2021/01/17 04:55:41;;;;;;;7.35;1.35;;;;;;;;;;5033666;28;20140;-69
2021/01/17 04:58:10;;;;;;;7.85;1.33;;;;;;;;;;5033753;28;20053;-68
2021/01/17 05:00:38;;;;;;;7.22;1.45;;;;;;;;;;5033579;28;20079;-68
2021/01/17 05:03:17;;;;;;;5.15;0.95;;;;;;;;;;5033601;28;20033;-68
2021/01/17 05:05:51;;;;;;;8.95;1.13;;;;;;;;;;5033485;28;20049;-69
2021/01/17 05:08:26;;;;;;;4.82;1.50;;;;;;;;;;5033188;28;20501;-68
2021/01/17 05:11:07;;;;;;;6.88;1.38;;;;;;;;;;5033263;28;20395;-69
2021/01/17 05:13:47;;;;;;;10.45;1.33;;;;;;;;;;5033407;28;20164;-69
2021/01/17 05:16:14;;;;;;;7.43;1.55;;;;;;;;;;5033231;28;20165;-68
2021/01/17 05:18:45;;;;;;;7.30;1.23;;;;;;;;;;5033386;28;20113;-68
2021/01/17 05:21:11;;;;;;;5.30;1.15;;;;;;;;;;5033124;28;20422;-68
2021/01/17 05:23:36;;;;;;;5.95;0.88;;;;;;;;;;5033222;28;20037;-68
2021/01/17 05:26:05;;;;;;;6.40;1.50;;;;;;;;;;5033055;28;20037;-68
2021/01/17 05:28:31;;;;;;;9.57;1.33;;;;;;;;;;5033203;28;20426;-68
2021/01/17 05:30:56;;;;;;;7.75;1.10;;;;;;;;;;5032731;28;20359;-69
2021/01/17 05:33:26;;;;;;;6.30;0.90;;;;;;;;;;5033073;28;20083;-68
2021/01/17 05:35:51;;;;;;;5.32;1.42;;;;;;;;;;5032636;28;20024;-69
2021/01/17 05:38:16;;;;;;;7.68;1.20;;;;;;;;;;5033045;28;20038;-68
2021/01/17 05:40:41;;;;;;;5.38;1.10;;;;;;;;;;5032772;28;20411;-69
2021/01/17 05:43:08;;;;;;;12.55;1.25;;;;;;;;;;5032977;28;20044;-68
2021/01/17 05:45:33;;;;;;;10.48;1.23;;;;;;;;;;5032804;28;20048;-68
2021/01/17 05:48:00;;;;;;;5.82;0.93;;;;;;;;;;5032772;28;20330;-68
2021/01/17 05:50:26;;;;;;;9.60;1.73;;;;;;;;;;5032836;28;20024;-69
2021/01/17 05:52:56;;;;;;;8.18;1.40;;;;;;;;;;5032977;28;20029;-68
2021/01/17 05:55:28;;;;;;;6.75;1.40;;;;;;;;;;5032794;28;20112;-71
2021/01/17 05:57:54;;;;;;;4.35;1.60;;;;;;;;;;5032427;28;20025;-71
2021/01/17 06:00:31;;;;;;;6.03;1.25;;;;;;;;;;5033017;28;20103;-71
2021/01/17 06:02:56;;;;;;;11.15;1.25;;;;;;;;;;5032188;28;20473;-71
2021/01/17 06:05:22;;;;;;;10.57;1.38;;;;;;;;;;5032713;28;20098;-71
2021/01/17 06:07:48;;;;;;;8.05;1.30;;;;;;;;;;5032561;28;20362;-71
2021/01/17 06:10:20;;;;;;;4.63;1.20;;;;;;;;;;5032431;28;20050;-68
2021/01/17 06:12:49;;;;;;;9.93;1.45;;;;;;;;;;5032512;28;20155;-68
2021/01/17 06:15:15;;;;;;;8.20;1.40;;;;;;;;;;5032554;28;20040;-68
2021/01/17 06:17:45;;;;;;;5.82;1.30;;;;;;;;;;5032447;28;20034;-69
2021/01/17 06:20:17;;;;;;;5.63;0.98;;;;;;;;;;5032567;28;20016;-69
2021/01/17 06:22:44;;;;;;;8.77;1.27;;;;;;;;;;5032468;28;20029;-68
2021/01/17 06:25:10;;;;;;;10.10;1.42;;;;;;;;;;5032154;28;20408;-68
2021/01/17 06:27:35;;;;;;;9.35;1.30;;;;;;;;;;5032251;28;20021;-68
2021/01/17 06:30:00;;;;;;;7.10;1.20;;;;;;;;;;5032488;28;20026;-68
2021/01/17 06:32:29;;;;;;;11.13;1.80;;;;;;;;;;5032338;28;20029;-68
2021/01/17 06:34:55;;;;;;;15.77;1.65;;;;;;;;;;5032107;28;21207;-69
2021/01/17 06:37:22;;;;;;;10.52;1.63;;;;;;;;;;5032244;28;20072;-68
2021/01/17 06:39:51;;;;;;;9.68;1.30;;;;;;;;;;5032284;28;20046;-68
2021/01/17 06:42:18;;;;;;;9.77;1.58;;;;;;;;;;5032099;28;20022;-68
2021/01/17 06:44:44;;;;;;;9.43;1.90;;;;;;;;;;5032388;28;20025;-68
2021/01/17 06:47:13;;;;;;;12.63;2.00;;;;;;;;;;5032130;28;20094;-68
2021/01/17 06:49:39;;;;;;;10.23;1.58;;;;;;;;;;5032294;28;20032;-68
2021/01/17 06:52:04;;;;;;;5.13;1.65;;;;;;;;;;5032086;28;20029;-68
2021/01/17 06:54:34;;;;;;;16.63;2.17;;;;;;;;;;5032227;28;20044;-68
2021/01/17 06:57:00;;;;;;;13.77;1.88;;;;;;;;;;5032044;28;20014;-68
2021/01/17 06:59:54;;;;;;;6.47;1.73;;;;;;;;;;5032220;28;20034;-68
2021/01/17 07:02:25;;;;;;;7.10;1.80;;;;;;;;;;5027080;28;20509;-69
2021/01/17 07:04:53;;;;;;;10.07;2.40;;;;;;;;;;5032002;28;20079;-68
2021/01/17 07:07:31;;;;;;;16.17;3.25;;;;;;;;;;5031771;28;20600;-68
2021/01/17 07:10:01;;;;;;;13.70;2.67;;;;;;;;;;5035307;28;20095;-68
2021/01/17 07:12:41;;;;;;;12.40;2.00;;;;;;;;;;5035666;28;20029;-68
2021/01/17 07:15:06;;;;;;;12.80;2.47;;;;;;;;;;5035377;28;20474;-68
2021/01/17 07:17:33;;;;;;;13.43;2.28;;;;;;;;;;5035327;28;20113;-68
2021/01/17 07:20:01;;;;;;;14.70;2.40;;;;;;;;;;5035272;28;20478;-68
2021/01/17 07:22:27;;;;;;;7.43;2.05;;;;;;;;;;5035425;28;20374;-68
2021/01/17 07:24:53;;;;;;;17.65;3.50;;;;;;;;;;5035409;28;20034;-68
2021/01/17 07:27:18;;;;;;;13.95;4.45;;;;;;;;;;5035290;28;20010;-68
2021/01/17 07:29:44;;;;;;;15.10;4.10;;;;;;;;;;5035414;28;20489;-68
2021/01/17 07:32:28;;;;;;;12.98;3.03;;;;;;;;;;5034097;28;20086;-68
2021/01/17 07:34:55;;;;;;;16.90;2.20;;;;;;;;;;5035343;28;20030;-68
2021/01/17 07:37:21;;;;;;;18.63;2.83;;;;;;;;;;5035123;28;20065;-68
2021/01/17 07:39:50;;;;;;;15.60;4.00;;;;;;;;;;5035304;28;20110;-68
2021/01/17 07:42:18;;;;;;;24.42;8.75;;;;;;;;;;5035006;28;20029;-68
2021/01/17 07:44:51;;;;;;;14.93;5.05;;;;;;;;;;5035061;28;20053;-68
2021/01/17 07:47:26;;;;;;;19.20;5.82;;;;;;;;;;5034996;28;20025;-68
2021/01/17 07:49:51;;;;;;;12.32;3.22;;;;;;;;;;5035059;28;20034;-68
2021/01/17 07:52:18;;;;;;;16.25;5.60;;;;;;;;;;5034939;28;20369;-68
2021/01/17 07:54:44;;;;;;;21.45;6.35;;;;;;;;;;5034680;28;20371;-68
2021/01/17 07:57:09;;;;;;;17.08;3.97;;;;;;;;;;5035128;28;20087;-68
2021/01/17 07:59:35;;;;;;;21.30;4.78;;;;;;;;;;5034898;28;20034;-68
2021/01/17 08:02:00;;;;;;;36.00;5.72;;;;;;;;;;5034643;28;20470;-68
2021/01/17 08:04:26;;;;;;;26.65;6.65;;;;;;;;;;5034832;28;20072;-68
2021/01/17 08:06:54;;;;;;;18.58;6.43;;;;;;;;;;5034411;28;20044;-68
2021/01/17 08:09:38;;;;;;;25.38;7.05;;;;;;;;;;5034577;28;20040;-68
2021/01/17 08:12:04;;;;;;;20.00;5.72;;;;;;;;;;5034421;28;20033;-68
2021/01/17 08:14:32;;;;;;;23.25;6.07;;;;;;;;;;5034642;28;20100;-69
2021/01/17 08:17:04;;;;;;;20.88;5.53;;;;;;;;;;5034360;28;20014;-69
2021/01/17 08:19:36;;;;;;;19.20;5.10;;;;;;;;;;5034401;28;20079;-69
2021/01/17 08:22:17;;;;;;;18.00;5.05;;;;;;;;;;5034263;28;20037;-68
2021/01/17 08:24:48;;;;;;;24.88;4.93;;;;;;;;;;5033981;28;20470;-68
2021/01/17 08:27:32;;;;;;;13.82;4.65;;;;;;;;;;5033491;28;20033;-69
2021/01/17 08:30:00;;;;;;;17.77;4.78;;;;;;;;;;5034355;28;20116;-68
2021/01/17 08:32:34;;;;;;;18.55;4.68;;;;;;;;;;5033704;28;20040;-71
2021/01/17 08:35:23;;;;;;;18.33;4.43;;;;;;;;;;5031986;28;20057;-71
2021/01/17 08:37:51;;;;;;;25.55;4.30;;;;;;;;;;5032538;28;20504;-71
2021/01/17 08:40:17;;;;;;;13.30;3.75;;;;;;;;;;5033606;28;20029;-71
2021/01/17 08:42:49;;;;;;;12.38;3.40;;;;;;;;;;5033012;28;20033;-68
2021/01/17 08:45:34;;;;;;;20.70;3.33;;;;;;;;;;5030458;28;20083;-68
2021/01/17 08:48:01;;;;;;;18.17;3.67;;;;;;;;;;5030893;28;20036;-69
2021/01/17 08:50:27;;;;;;;17.40;3.42;;;;;;;;;;5030202;28;20038;-69
2021/01/17 08:53:04;;;;;;;13.18;2.65;;;;;;;;;;5032670;28;20024;-68
2021/01/17 08:55:36;;;;;;;35.03;10.95;;;;;;;;;;5022350;28;20502;-68
2021/01/17 08:58:01;;;;;;;33.35;9.88;;;;;;;;;;5036798;28;20036;-68
2021/01/17 09:00:46;;;;;;;16.83;5.20;;;;;;;;;;5034549;28;20036;-70
2021/01/17 09:03:32;;;;;;;17.13;6.47;;;;;;;;;;5028158;28;20580;-70
2021/01/17 09:05:59;;;;;;;15.07;5.30;;;;;;;;;;5026132;28;20065;-70
2021/01/17 09:08:25;;;;;;;6.80;2.30;;;;;;;;;;5033118;28;20041;-70
2021/01/17 09:10:50;;;;;;;9.93;3.50;;;;;;;;;;5040284;28;20064;-70
2021/01/17 09:13:22;;;;;;;12.05;3.60;;;;;;;;;;5032453;28;20025;-68
2021/01/17 09:16:08;;;;;;;10.40;3.17;;;;;;;;;;5016565;28;20501;-68
2021/01/17 09:18:35;;;;;;;16.05;5.10;;;;;;;;;;5035879;28;20057;-68
2021/01/17 09:21:00;;;;;;;16.73;6.03;;;;;;;;;;5042266;28;20029;-68
2021/01/17 09:23:26;;;;;;;11.85;3.65;;;;;;;;;;5032007;28;20111;-68
2021/01/17 09:25:55;;;;;;;10.55;3.63;;;;;;;;;;5035040;28;20107;-69
2021/01/17 09:28:20;;;;;;;10.60;2.63;;;;;;;;;;5040108;28;20485;-69
2021/01/17 09:30:49;;;;;;;10.52;2.30;;;;;;;;;;5039437;28;20791;-68
2021/01/17 09:33:15;;;;;;;10.13;2.50;;;;;;;;;;5032197;28;20033;-68
2021/01/17 09:35:40;;;;;;;12.93;2.00;;;;;;;;;;5034168;28;20037;-69
2021/01/17 09:38:06;;;;;;;7.07;1.50;;;;;;;;;;5042077;28;20108;-69
2021/01/17 09:40:37;;;;;;;10.77;2.35;;;;;;;;;;5031211;28;20108;-68
2021/01/17 09:43:02;;;;;;;10.00;1.50;;;;;;;;;;5028382;28;20029;-69
2021/01/17 09:45:28;;;;;;;10.30;1.67;;;;;;;;;;5030011;28;20041;-69
2021/01/17 09:47:53;;;;;;;10.52;1.70;;;;;;;;;;5043398;28;20032;-68
2021/01/17 09:50:18;;;;;;;8.57;1.30;;;;;;;;;;5036441;28;20420;-69
2021/01/17 09:52:43;;;;;;;5.53;1.38;;;;;;;;;;5036002;28;20033;-68
2021/01/17 09:55:12;;;;;;;13.90;1.92;;;;;;;;;;5036078;28;20044;-69
2021/01/17 09:57:40;;;;;;;4.45;1.45;;;;;;;;;;5039256;28;20468;-68
2021/01/17 10:00:12;;;;;;;7.35;1.95;;;;;;;;;;5028451;28;20056;-68
2021/01/17 10:02:37;;;;;;;10.27;1.98;;;;;;;;;;5028195;28;20060;-71
2021/01/17 10:05:03;;;;;;;5.40;1.55;;;;;;;;;;5035942;28;20076;-71
2021/01/17 10:07:28;;;;;;;11.75;1.75;;;;;;;;;;5036730;28;20048;-70
2021/01/17 10:09:54;;;;;;;9.18;2.28;;;;;;;;;;5034250;28;20406;-72
2021/01/17 10:12:20;;;;;;;11.90;1.60;;;;;;;;;;5035245;28;20478;-71
2021/01/17 10:14:45;;;;;;;7.38;1.42;;;;;;;;;;5036969;28;20043;-71
2021/01/17 10:17:10;;;;;;;7.60;1.63;;;;;;;;;;5031495;28;20026;-71
2021/01/17 10:19:40;;;;;;;16.15;2.40;;;;;;;;;;5034754;28;20379;-71
2021/01/17 10:22:08;;;;;;;9.77;1.70;;;;;;;;;;5015913;28;20021;-71
2021/01/17 10:24:34;;;;;;;13.50;2.22;;;;;;;;;;5020643;28;20092;-70
2021/01/17 10:27:00;;;;;;;8.15;2.20;;;;;;;;;;5022270;28;20464;-71
2021/01/17 10:29:27;;;;;;;9.00;2.15;;;;;;;;;;5030919;28;20028;-71
2021/01/17 10:31:56;;;;;;;10.23;1.80;;;;;;;;;;5025706;28;20036;-70
2021/01/17 10:34:25;;;;;;;7.97;2.08;;;;;;;;;;5026617;28;20025;-70
2021/01/17 10:36:54;;;;;;;7.68;1.85;;;;;;;;;;5025661;28;20030;-70
2021/01/17 10:39:20;;;;;;;10.73;2.20;;;;;;;;;;5024807;28;20970;-70
2021/01/17 10:41:45;;;;;;;8.80;1.67;;;;;;;;;;5020089;28;20033;-72
2021/01/17 10:44:12;;;;;;;8.25;1.58;;;;;;;;;;5027817;28;20025;-71
2021/01/17 10:46:42;;;;;;;4.05;1.20;;;;;;;;;;5028290;28;20076;-71
2021/01/17 10:49:15;;;;;;;3.25;1.08;;;;;;;;;;5027728;28;20128;-71
2021/01/17 10:51:43;;;;;;;18.00;2.38;;;;;;;;;;5028531;28;20028;-71
2021/01/17 10:54:09;;;;;;;6.75;1.30;;;;;;;;;;5029427;28;20789;-71
2021/01/17 10:56:35;;;;;;;10.65;1.75;;;;;;;;;;5028681;28;20525;-70
2021/01/17 10:59:08;;;;;;;9.45;1.60;;;;;;;;;;5033808;28;20036;-71
2021/01/17 11:01:34;;;;;;;8.77;1.90;;;;;;;;;;5039295;28;20065;-71
2021/01/17 11:04:00;;;;;;;12.70;1.73;;;;;;;;;;5043305;28;20101;-70
2021/01/17 11:06:29;;;;;;;8.30;1.50;;;;;;;;;;5038572;28;20498;-71
2021/01/17 11:08:59;;;;;;;15.25;2.38;;;;;;;;;;5036928;28;20499;-71
2021/01/17 11:11:27;;;;;;;15.02;2.05;;;;;;;;;;5039704;28;20103;-71
2021/01/17 11:14:00;;;;;;;8.80;1.83;;;;;;;;;;5042353;28;20036;-71
2021/01/17 11:16:33;;;;;;;10.55;1.85;;;;;;;;;;5026837;28;20112;-70
2021/01/17 11:18:58;;;;;;;10.80;1.40;;;;;;;;;;5044523;28;20496;-72
2021/01/17 11:21:24;;;;;;;9.55;1.58;;;;;;;;;;5032413;28;20021;-71
2021/01/17 11:23:53;;;;;;;8.60;1.60;;;;;;;;;;5042303;28;20136;-72
2021/01/17 11:26:21;;;;;;;9.90;1.67;;;;;;;;;;5039524;28;20497;-71
2021/01/17 11:28:53;;;;;;;9.77;1.27;;;;;;;;;;5035255;28;20041;-72
2021/01/17 11:31:19;;;;;;;12.75;1.35;;;;;;;;;;5046245;28;20036;-71
2021/01/17 11:33:46;;;;;;;10.75;1.45;;;;;;;;;;5035083;28;20036;-72
2021/01/17 11:36:14;;;;;;;13.52;1.88;;;;;;;;;;5039268;28;20062;-71
2021/01/17 11:38:40;;;;;;;11.63;1.65;;;;;;;;;;5041336;28;20032;-72
2021/01/17 11:41:06;;;;;;;15.35;2.05;;;;;;;;;;5032176;28;20458;-71
2021/01/17 11:43:31;;;;;;;14.02;1.88;;;;;;;;;;5034865;28;20095;-72
2021/01/17 11:46:03;;;;;;;12.02;1.80;;;;;;;;;;5043146;28;20070;-71
2021/01/17 11:48:30;;;;;;;10.50;1.70;;;;;;;;;;5041537;28;20091;-71
2021/01/17 11:50:56;;;;;;;7.95;2.28;;;;;;;;;;5032595;28;20702;-71
2021/01/17 11:53:25;;;;;;;14.23;2.40;;;;;;;;;;5046255;28;20029;-71
2021/01/17 11:55:50;;;;;;;10.07;1.83;;;;;;;;;;5036482;28;20094;-72
2021/01/17 11:58:16;;;;;;;14.27;1.95;;;;;;;;;;5039201;28;20574;-69
2021/01/17 12:00:55;;;;;;;10.38;1.60;;;;;;;;;;5020354;28;20033;-72
2021/01/17 12:03:22;;;;;;;11.57;1.92;;;;;;;;;;5033815;28;20120;-72
2021/01/17 12:05:59;;;;;;;10.05;1.48;;;;;;;;;;5036480;28;20045;-72
2021/01/17 12:08:25;;;;;;;10.02;1.58;;;;;;;;;;5038249;28;20516;-71
2021/01/17 12:10:56;;;;;;;12.20;2.58;;;;;;;;;;5028474;28;20046;-72
2021/01/17 12:13:21;;;;;;;7.88;1.15;;;;;;;;;;5031525;28;20116;-72
2021/01/17 12:15:47;;;;;;;12.73;1.40;;;;;;;;;;5033262;28;20414;-72
2021/01/17 12:18:12;;;;;;;9.85;1.52;;;;;;;;;;5033637;28;20080;-72
2021/01/17 12:20:38;;;;;;;11.38;1.83;;;;;;;;;;5028254;28;20037;-71
2021/01/17 12:23:03;;;;;;;5.40;1.40;;;;;;;;;;5032621;28;20128;-71
2021/01/17 12:25:29;;;;;;;8.18;1.50;;;;;;;;;;5031006;28;20124;-72
2021/01/17 12:27:54;;;;;;;10.55;1.63;;;;;;;;;;5033581;28;20041;-72
2021/01/17 12:30:20;;;;;;;9.63;1.27;;;;;;;;;;5032898;28;20036;-72
2021/01/17 12:32:45;;;;;;;10.07;1.48;;;;;;;;;;5031824;28;20118;-72
2021/01/17 12:35:11;;;;;;;9.63;2.00;;;;;;;;;;5032453;28;20501;-72
2021/01/17 12:37:36;;;;;;;11.00;1.85;;;;;;;;;;5033187;28;20451;-72
2021/01/17 12:40:01;;;;;;;7.82;1.25;;;;;;;;;;5033351;28;20040;-72
2021/01/17 12:42:27;;;;;;;12.07;2.00;;;;;;;;;;5031659;28;20390;-71
2021/01/17 12:44:52;;;;;;;13.05;1.70;;;;;;;;;;5032860;28;20021;-72
2021/01/17 12:47:17;;;;;;;8.00;1.00;;;;;;;;;;5033297;28;20119;-71
2021/01/17 12:49:42;;;;;;;12.43;1.50;;;;;;;;;;5033075;28;20382;-72
2021/01/17 12:52:08;;;;;;;5.85;1.30;;;;;;;;;;5033664;28;20049;-72
2021/01/17 12:54:33;;;;;;;8.95;1.55;;;;;;;;;;5033813;28;20025;-72
2021/01/17 12:56:58;;;;;;;9.98;1.73;;;;;;;;;;5033017;28;20393;-72
2021/01/17 12:59:24;;;;;;;10.50;2.55;;;;;;;;;;5033112;28;20025;-69
2021/01/17 13:01:49;;;;;;;16.15;1.60;;;;;;;;;;5033218;28;20029;-69
2021/01/17 13:04:14;;;;;;;13.00;1.70;;;;;;;;;;5033404;28;20036;-70
2021/01/17 13:06:39;;;;;;;11.18;1.83;;;;;;;;;;5031435;28;20091;-69
2021/01/17 13:09:06;;;;;;;12.00;2.00;;;;;;;;;;5033505;28;20040;-70
2021/01/17 13:11:31;;;;;;;11.63;2.05;;;;;;;;;;5033651;28;20045;-69
2021/01/17 13:13:56;;;;;;;13.43;2.80;;;;;;;;;;5032527;28;20028;-70
2021/01/17 13:16:21;;;;;;;5.55;1.50;;;;;;;;;;5032336;28;20112;-70
2021/01/17 13:18:48;;;;;;;13.82;1.85;;;;;;;;;;5032386;28;20056;-69
2021/01/17 13:21:14;;;;;;;14.00;1.90;;;;;;;;;;5032279;28;20521;-70
2021/01/17 13:23:39;;;;;;;10.90;1.98;;;;;;;;;;5032427;28;20029;-70
2021/01/17 13:26:04;;;;;;;11.13;2.17;;;;;;;;;;5032277;28;20402;-70
2021/01/17 13:28:30;;;;;;;15.07;2.08;;;;;;;;;;5032084;28;20104;-70
2021/01/17 13:30:55;;;;;;;9.00;1.30;;;;;;;;;;5032373;28;20044;-69
2021/01/17 13:33:21;;;;;;;7.10;1.38;;;;;;;;;;5032194;28;20462;-70
2021/01/17 13:35:48;;;;;;;11.68;1.55;;;;;;;;;;5031990;28;20170;-70
2021/01/17 13:38:14;;;;;;;10.43;2.00;;;;;;;;;;5032611;28;20033;-69
2021/01/17 13:40:40;;;;;;;14.77;2.22;;;;;;;;;;5033018;28;20033;-70
2021/01/17 13:43:05;;;;;;;11.82;1.77;;;;;;;;;;5032797;28;20021;-70
2021/01/17 13:45:31;;;;;;;28.55;8.93;;;;;;;;;;5032891;28;20037;-69
2021/01/17 13:47:56;;;;;;;22.15;7.57;;;;;;;;;;5031505;28;20029;-70
2021/01/17 13:50:22;;;;;;;28.33;9.68;;;;;;;;;;5032613;28;20462;-70
2021/01/17 13:52:47;;;;;;;20.85;6.88;;;;;;;;;;5032647;28;20037;-68
2021/01/17 13:55:13;;;;;;;19.52;4.28;;;;;;;;;;5032835;28;20108;-69
2021/01/17 13:57:39;;;;;;;17.33;4.70;;;;;;;;;;5027670;28;20049;-72
2021/01/17 14:00:12;;;;;;;14.38;3.33;;;;;;;;;;5031324;28;20439;-72
2021/01/17 14:02:37;;;;;;;29.58;10.40;;;;;;;;;;5031391;28;20033;-72
2021/01/17 14:05:03;;;;;;;16.38;4.47;;;;;;;;;;5023927;28;20025;-72
2021/01/17 14:07:29;;;;;;;19.52;7.55;;;;;;;;;;5029335;28;20033;-71
2021/01/17 14:09:54;;;;;;;15.55;3.03;;;;;;;;;;5029397;28;20054;-72
2021/01/17 14:12:19;;;;;;;22.38;8.90;;;;;;;;;;5029250;28;20055;-72
2021/01/17 14:14:45;;;;;;;14.75;4.25;;;;;;;;;;5030086;28;20021;-72
2021/01/17 14:17:10;;;;;;;16.98;4.45;;;;;;;;;;5030421;28;20065;-71
2021/01/17 14:19:36;;;;;;;14.20;2.53;;;;;;;;;;5034740;28;20028;-72
2021/01/17 14:22:01;;;;;;;17.10;2.80;;;;;;;;;;5035403;28;20036;-72
2021/01/17 14:24:26;;;;;;;14.55;2.58;;;;;;;;;;5035607;28;20040;-69
2021/01/17 14:26:52;;;;;;;28.73;4.95;;;;;;;;;;5035922;28;20040;-71
2021/01/17 14:29:17;;;;;;;13.38;2.55;;;;;;;;;;5035537;28;20029;-72
2021/01/17 14:31:47;;;;;;;15.30;3.60;;;;;;;;;;5035661;28;20029;-72
2021/01/17 14:34:12;;;;;;;29.85;9.38;;;;;;;;;;5035991;28;20018;-72